LIPZ/VCE METAR and TAF weather

Enter ICAO airport designator
Station Type Date Time Source
LIPZ METAR 2021/07/30 07:20 UTC NOAA

LIPZ 300720Z VRB02KT CAVOK 28/21 Q1012 NOSIG


Station Type Date Time Source
LIPZ Decoded METAR 2021/07/30 07:20 UTC NOAA

Venezia / Tessera, Italy (LIPZ) 45-30N 012-20E 6M
Jul 30, 2021 - 03:20 AM EDT / 2021.07.30 0720 UTC
Wind: Variable at 2 MPH (2 KT):0
Visibility: greater than 7 mile(s):0
Temperature: 82 F (28 C)
Dew Point: 69 F (21 C)
Relative Humidity: 65%
Pressure (altimeter): 29.88 in. Hg (1012 hPa)
ob: LIPZ 300720Z VRB02KT CAVOK 28/21 Q1012 NOSIG
cycle: 7

Station Type Date Time Source
LIPZ TAF 2021/07/30 06:21 UTC NOAA

TAF LIPZ 300500Z 3006/3112 VRB05KT 9999 SCT030
BECMG 3010/3012 17010KT
TEMPO 3017/3021 SHRA
BECMG 3018/3020 VRB04KT
BECMG 3109/3111 17010KT

Example: see airport list